createdAt,value
2019-03-16T00:00:57.393Z,22.00
2019-03-16T00:03:23.832Z,22.00
2019-03-16T00:05:50.294Z,22.10
2019-03-16T00:08:16.726Z,22.10
2019-03-16T00:10:43.774Z,22.00
2019-03-16T00:13:10.222Z,22.10
2019-03-16T00:15:36.673Z,22.30
2019-03-16T00:18:03.130Z,22.40
2019-03-16T00:20:29.568Z,22.50
2019-03-16T00:22:56.108Z,22.50
2019-03-16T00:25:23.896Z,22.60
2019-03-16T00:27:50.331Z,22.60
2019-03-16T00:30:16.913Z,22.40
2019-03-16T00:32:43.392Z,22.40
2019-03-16T00:35:10.194Z,22.40
2019-03-16T00:37:37.588Z,22.40
2019-03-16T00:40:05.857Z,22.40
2019-03-16T00:42:32.750Z,22.50
2019-03-16T00:44:59.189Z,22.50
2019-03-16T00:47:25.666Z,22.50
2019-03-16T00:49:53.210Z,22.50
2019-03-16T00:52:20.133Z,22.50
2019-03-16T00:54:47.079Z,22.60
2019-03-16T00:57:13.809Z,22.50
2019-03-16T00:59:40.368Z,22.40
2019-03-16T01:02:06.823Z,22.40
2019-03-16T01:04:33.279Z,22.10
2019-03-16T01:07:00.014Z,22.00
2019-03-16T01:09:26.783Z,22.10
2019-03-16T01:11:53.347Z,22.10
2019-03-16T01:14:20.089Z,21.90
2019-03-16T01:16:48.024Z,21.80
2019-03-16T01:19:14.514Z,21.90
2019-03-16T01:21:41.086Z,21.80
2019-03-16T01:24:07.549Z,21.70
2019-03-16T01:26:34.403Z,21.90
2019-03-16T01:29:00.834Z,22.10
2019-03-16T01:31:27.526Z,22.30
2019-03-16T01:33:53.972Z,22.30
2019-03-16T01:36:20.419Z,22.40
2019-03-16T01:38:46.866Z,22.40
2019-03-16T01:41:13.454Z,22.20
2019-03-16T01:43:39.904Z,22.10
2019-03-16T01:46:06.359Z,22.40
2019-03-16T01:48:33.087Z,22.40
2019-03-16T01:50:59.626Z,22.40
2019-03-16T01:53:27.191Z,22.40
2019-03-16T01:55:53.626Z,22.40
2019-03-16T01:58:20.721Z,22.50
2019-03-16T02:00:47.193Z,22.30
2019-03-16T02:03:13.663Z,22.10
2019-03-16T02:05:40.117Z,22.10
2019-03-16T02:08:06.772Z,22.10
2019-03-16T02:10:33.224Z,22.20
2019-03-16T02:12:59.686Z,22.20
2019-03-16T02:15:26.199Z,22.20
2019-03-16T02:17:52.767Z,22.20
2019-03-16T02:20:19.196Z,22.10
2019-03-16T02:22:45.668Z,22.20
2019-03-16T02:25:12.211Z,21.90
2019-03-16T02:27:39.913Z,21.70
2019-03-16T02:30:10.303Z,21.20
2019-03-16T02:32:36.760Z,21.00
2019-03-16T02:35:05.309Z,20.80
2019-03-16T02:37:31.773Z,20.90
2019-03-16T02:39:58.216Z,21.10
2019-03-16T02:42:24.678Z,21.20
2019-03-16T02:44:51.242Z,21.20
2019-03-16T02:47:17.717Z,21.20
2019-03-16T02:49:44.152Z,21.30
2019-03-16T02:52:10.596Z,21.40
2019-03-16T02:54:37.049Z,21.50
2019-03-16T02:57:03.604Z,21.70
2019-03-16T02:59:30.055Z,21.70
2019-03-16T03:01:56.494Z,21.80
2019-03-16T03:04:22.956Z,21.90
2019-03-16T03:06:49.400Z,22.10
2019-03-16T03:09:15.865Z,22.20
2019-03-16T03:11:42.302Z,22.20
2019-03-16T03:14:08.763Z,22.20
2019-03-16T03:16:35.391Z,22.20
2019-03-16T03:19:02.082Z,22.20
2019-03-16T03:21:28.506Z,22.30
2019-03-16T03:23:55.056Z,22.10
2019-03-16T03:26:21.513Z,21.90
2019-03-16T03:28:48.067Z,22.10
2019-03-16T03:31:14.505Z,21.80
2019-03-16T03:33:59.118Z,21.90
2019-03-16T03:36:09.319Z,21.80
2019-03-16T03:38:35.781Z,21.80
2019-03-16T03:41:02.393Z,21.70
2019-03-16T03:43:28.885Z,21.70
2019-03-16T03:45:55.309Z,21.50
2019-03-16T03:48:21.798Z,21.40
2019-03-16T03:50:48.241Z,21.30
2019-03-16T03:53:14.804Z,21.40
2019-03-16T03:55:41.247Z,21.40
2019-03-16T03:58:07.722Z,21.40
2019-03-16T04:00:34.182Z,21.30
2019-03-16T04:03:00.945Z,21.30
2019-03-16T04:05:27.398Z,21.30
2019-03-16T04:07:53.857Z,21.20
2019-03-16T04:10:20.310Z,21.00
2019-03-16T04:12:46.753Z,21.00
2019-03-16T04:15:13.227Z,21.10
2019-03-16T04:17:39.750Z,21.00
2019-03-16T04:20:09.222Z,21.00
2019-03-16T04:22:35.658Z,21.10
2019-03-16T04:25:02.162Z,21.00
2019-03-16T04:27:28.685Z,21.00
2019-03-16T04:29:55.140Z,21.00
2019-03-16T04:32:21.576Z,20.90
2019-03-16T04:34:48.055Z,20.90
2019-03-16T04:37:14.492Z,20.90
2019-03-16T04:39:41.050Z,20.80
2019-03-16T04:44:45.641Z,20.80
2019-03-16T04:47:12.176Z,20.80
2019-03-16T04:49:39.148Z,20.80
2019-03-16T04:52:06.205Z,20.80
2019-03-16T04:54:32.923Z,20.80
2019-03-16T04:56:59.538Z,20.70
2019-03-16T04:59:26.094Z,20.60
2019-03-16T05:01:52.538Z,20.80
2019-03-16T05:04:19.057Z,20.80
2019-03-16T05:06:45.851Z,20.60
2019-03-16T05:09:12.322Z,20.70
2019-03-16T05:11:38.751Z,20.50
2019-03-16T05:14:05.215Z,20.70
2019-03-16T05:16:31.654Z,21.00
2019-03-16T05:18:58.108Z,20.90
2019-03-16T05:21:24.576Z,21.10
2019-03-16T05:23:51.030Z,21.10
2019-03-16T05:26:17.532Z,21.10
2019-03-16T05:28:43.963Z,20.90
2019-03-16T05:31:10.419Z,20.80
2019-03-16T05:33:36.867Z,20.80
2019-03-16T05:36:03.331Z,20.90
2019-03-16T05:38:29.776Z,21.10
2019-03-16T05:40:56.242Z,21.00
2019-03-16T05:43:22.796Z,20.90
2019-03-16T05:45:49.424Z,21.00
2019-03-16T05:48:15.977Z,20.90
2019-03-16T05:50:42.559Z,20.90
2019-03-16T05:53:09.042Z,21.00
2019-03-16T05:55:35.850Z,20.90
2019-03-16T05:58:02.328Z,21.10
2019-03-16T06:00:29.012Z,21.10
2019-03-16T06:02:55.481Z,21.10
2019-03-16T06:05:21.946Z,21.00
2019-03-16T06:07:48.410Z,20.80
2019-03-16T06:10:14.870Z,20.90
2019-03-16T06:12:41.320Z,20.60
2019-03-16T06:15:10.812Z,20.50
2019-03-16T06:17:37.247Z,20.60
2019-03-16T06:20:11.144Z,20.60
2019-03-16T06:22:37.663Z,20.60
2019-03-16T06:25:06.442Z,20.60
2019-03-16T06:27:33.080Z,20.70
2019-03-16T06:29:59.559Z,20.80
2019-03-16T06:32:26.238Z,20.70
2019-03-16T06:34:52.766Z,20.80
2019-03-16T06:37:19.211Z,20.90
2019-03-16T06:39:45.703Z,21.00
2019-03-16T06:42:12.143Z,21.10
2019-03-16T06:44:38.604Z,21.30
2019-03-16T06:47:05.083Z,21.30
2019-03-16T06:49:31.532Z,21.40
2019-03-16T06:51:58.087Z,21.40
2019-03-16T06:54:24.592Z,21.30
2019-03-16T06:56:51.052Z,21.10
2019-03-16T06:59:17.521Z,21.20
2019-03-16T07:01:44.120Z,21.50
2019-03-16T07:04:10.574Z,21.40
2019-03-16T07:06:37.158Z,21.50
2019-03-16T07:09:05.645Z,21.40
2019-03-16T07:11:32.116Z,21.50
2019-03-16T07:13:58.810Z,21.30
2019-03-16T07:16:26.372Z,21.30
2019-03-16T07:18:58.677Z,21.50
2019-03-16T07:21:21.327Z,21.50
2019-03-16T07:23:48.037Z,21.70
2019-03-16T07:26:15.440Z,21.80
2019-03-16T07:28:42.161Z,21.50
2019-03-16T07:31:08.771Z,21.40
2019-03-16T07:33:35.368Z,21.20
2019-03-16T07:36:01.891Z,21.30
2019-03-16T07:38:28.488Z,21.70
2019-03-16T07:40:55.106Z,21.70
2019-03-16T07:43:21.703Z,21.80
2019-03-16T07:45:48.295Z,21.80
2019-03-16T07:48:14.852Z,22.00
2019-03-16T07:50:41.572Z,22.20
2019-03-16T07:53:08.286Z,22.30
2019-03-16T07:55:35.224Z,22.70
2019-03-16T07:58:01.829Z,23.10
2019-03-16T08:00:30.151Z,23.20
2019-03-16T08:02:56.729Z,23.40
2019-03-16T08:05:23.206Z,23.30
2019-03-16T08:07:49.681Z,23.10
2019-03-16T08:10:17.409Z,23.00
2019-03-16T08:12:44.047Z,22.80
2019-03-16T08:15:10.870Z,22.30
2019-03-16T08:17:37.564Z,22.20
2019-03-16T08:20:05.984Z,22.10
2019-03-16T08:22:32.958Z,22.20
2019-03-16T08:24:59.928Z,22.20
2019-03-16T08:27:26.887Z,22.10
2019-03-16T08:29:53.479Z,22.00
2019-03-16T08:32:20.093Z,22.20
2019-03-16T08:34:46.725Z,21.90
2019-03-16T08:37:13.405Z,21.80
2019-03-16T08:39:41.146Z,21.90
2019-03-16T08:42:07.769Z,21.90
2019-03-16T08:44:34.354Z,22.00
2019-03-16T08:47:00.921Z,22.00
2019-03-16T08:49:27.797Z,22.00
2019-03-16T08:51:54.501Z,21.90
2019-03-16T08:54:21.152Z,21.70
2019-03-16T08:56:50.042Z,21.90
2019-03-16T08:59:16.817Z,22.00
2019-03-16T09:01:44.632Z,22.30
2019-03-16T09:04:12.016Z,22.20
2019-03-16T09:06:38.866Z,22.30
2019-03-16T09:09:06.888Z,22.10
2019-03-16T09:11:34.823Z,21.80
2019-03-16T09:14:01.285Z,21.70
2019-03-16T09:16:27.921Z,21.60
2019-03-16T09:18:54.400Z,21.60
2019-03-16T09:21:21.127Z,21.70
2019-03-16T09:23:47.711Z,22.10
2019-03-16T09:26:15.110Z,22.30
2019-03-16T09:28:42.601Z,22.60
2019-03-16T09:31:09.050Z,22.60
2019-03-16T09:33:35.701Z,22.70
2019-03-16T09:36:02.173Z,22.70
2019-03-16T09:38:28.901Z,22.60
2019-03-16T09:40:56.382Z,22.50
2019-03-16T09:43:22.985Z,22.40
2019-03-16T09:45:49.635Z,22.40
2019-03-16T09:48:16.303Z,22.10
2019-03-16T09:50:42.870Z,22.30
2019-03-16T09:53:10.928Z,22.30
2019-03-16T09:55:38.758Z,22.10
2019-03-16T09:58:06.025Z,21.90
2019-03-16T10:00:32.615Z,21.90
2019-03-16T10:02:59.333Z,22.00
2019-03-16T10:05:26.442Z,21.90
2019-03-16T10:07:53.656Z,21.60
2019-03-16T10:10:20.341Z,21.90
2019-03-16T10:12:47.339Z,21.80
2019-03-16T10:15:14.077Z,22.10
2019-03-16T10:17:40.682Z,22.50
2019-03-16T10:20:10.095Z,22.70
2019-03-16T10:22:36.956Z,22.80
2019-03-16T10:25:04.502Z,22.90
2019-03-16T10:27:31.723Z,23.10
2019-03-16T10:29:58.977Z,23.10
2019-03-16T10:32:25.937Z,23.20
2019-03-16T10:34:52.655Z,23.00
2019-03-16T10:37:19.615Z,23.00
2019-03-16T10:39:47.040Z,22.70
2019-03-16T10:42:21.856Z,22.50
2019-03-16T10:44:52.885Z,22.20
2019-03-16T10:47:20.598Z,22.10
2019-03-16T10:50:03.461Z,22.20
2019-03-16T10:52:34.144Z,22.30
2019-03-16T10:55:00.907Z,22.40
2019-03-16T10:57:27.491Z,22.20
2019-03-16T10:59:54.082Z,22.30
2019-03-16T11:02:24.590Z,22.60
2019-03-16T11:04:51.174Z,23.00
2019-03-16T11:07:18.957Z,23.00
2019-03-16T11:09:45.852Z,23.00
2019-03-16T11:12:13.579Z,23.30
2019-03-16T11:14:41.270Z,23.60
2019-03-16T11:17:08.310Z,23.70
2019-03-16T11:19:35.130Z,23.80
2019-03-16T11:22:02.208Z,23.70
2019-03-16T11:24:30.226Z,23.60
2019-03-16T11:26:57.195Z,23.50
2019-03-16T11:29:24.361Z,23.50
2019-03-16T11:31:51.871Z,23.20
2019-03-16T11:34:19.639Z,23.00
2019-03-16T11:36:46.403Z,22.80
2019-03-16T11:39:14.861Z,22.90
2019-03-16T11:41:41.424Z,22.70
2019-03-16T11:44:07.945Z,22.60
2019-03-16T11:46:36.291Z,22.50
2019-03-16T11:49:03.551Z,22.30
2019-03-16T11:51:30.199Z,22.30
2019-03-16T11:53:57.554Z,22.30
2019-03-16T11:56:24.117Z,22.10
2019-03-16T11:58:51.559Z,22.30
2019-03-16T12:01:18.672Z,22.50
2019-03-16T12:03:45.980Z,22.60
2019-03-16T12:06:15.004Z,22.70
2019-03-16T12:08:42.972Z,22.70
2019-03-16T12:11:10.528Z,22.80
2019-03-16T12:13:37.399Z,23.10
2019-03-16T12:16:04.827Z,22.70
2019-03-16T12:18:31.650Z,22.50
2019-03-16T12:20:59.867Z,22.20
2019-03-16T12:23:26.501Z,22.00
2019-03-16T12:25:53.225Z,22.00
2019-03-16T12:28:20.958Z,21.80
2019-03-16T12:30:47.548Z,21.70
2019-03-16T12:33:14.761Z,21.80
2019-03-16T12:35:54.550Z,21.70
2019-03-16T12:38:21.023Z,21.70
2019-03-16T12:40:47.717Z,21.80
2019-03-16T12:43:15.514Z,21.80
2019-03-16T12:45:42.301Z,21.90
2019-03-16T12:48:08.990Z,22.00
2019-03-16T12:50:35.520Z,22.20
2019-03-16T12:53:02.487Z,22.40
2019-03-16T12:55:29.189Z,22.50
2019-03-16T12:57:55.654Z,22.60
2019-03-16T13:00:22.627Z,22.90
2019-03-16T13:02:49.439Z,23.10
2019-03-16T13:05:16.068Z,23.20
2019-03-16T13:07:42.608Z,22.80
2019-03-16T13:10:15.168Z,22.50
2019-03-16T13:12:42.023Z,22.40
2019-03-16T13:15:08.502Z,22.60
2019-03-16T13:17:35.692Z,22.50
2019-03-16T13:20:07.969Z,22.30
2019-03-16T13:22:34.272Z,22.20
2019-03-16T13:25:00.970Z,22.10
2019-03-16T13:27:27.717Z,22.30
2019-03-16T13:29:59.022Z,22.50
2019-03-16T13:32:22.871Z,22.60
2019-03-16T13:45:55.069Z,22.70
2019-03-16T13:48:21.986Z,23.10
2019-03-16T13:50:48.941Z,23.30
2019-03-16T13:53:16.380Z,23.60
2019-03-16T13:55:43.273Z,23.70
2019-03-16T13:58:10.146Z,23.80
2019-03-16T14:00:37.228Z,23.80
2019-03-16T14:03:04.340Z,23.80
2019-03-16T14:05:31.182Z,23.50
2019-03-16T14:07:57.818Z,23.50
2019-03-16T14:10:28.035Z,23.40
2019-03-16T14:13:14.705Z,23.60
2019-03-16T14:15:41.886Z,23.60
2019-03-16T14:18:09.360Z,23.50
2019-03-16T14:23:13.891Z,23.50
2019-03-16T14:25:41.891Z,23.10
2019-03-16T14:28:09.465Z,23.10
2019-03-16T14:30:41.306Z,23.30
2019-03-16T14:33:06.402Z,23.50
2019-03-16T14:35:32.920Z,23.60
2019-03-16T14:37:59.852Z,23.50
2019-03-16T14:40:27.336Z,23.70
2019-03-16T14:42:54.032Z,23.70
2019-03-16T14:45:23.437Z,23.60
2019-03-16T14:47:50.988Z,24.00
2019-03-16T14:50:20.596Z,24.00
2019-03-16T14:52:47.483Z,24.10
2019-03-16T14:55:14.526Z,24.00
2019-03-16T14:57:41.438Z,24.00
2019-03-16T15:00:11.923Z,24.10
2019-03-16T15:02:41.045Z,24.00
2019-03-16T15:05:07.956Z,24.20
2019-03-16T15:07:35.215Z,24.20
2019-03-16T15:10:04.026Z,24.30
2019-03-16T15:12:30.897Z,24.20
2019-03-16T15:14:57.862Z,24.20
2019-03-16T15:17:25.574Z,24.00
2019-03-16T15:19:52.288Z,24.00
2019-03-16T15:22:20.216Z,24.10
2019-03-16T15:24:48.865Z,24.20
2019-03-16T15:27:15.966Z,24.10
2019-03-16T15:29:42.958Z,24.00
2019-03-16T15:32:09.938Z,24.00
2019-03-16T15:34:36.898Z,24.10
2019-03-16T15:37:03.830Z,24.20
2019-03-16T15:39:31.022Z,24.00
2019-03-16T15:41:58.734Z,24.10
2019-03-16T15:44:25.789Z,24.20
2019-03-16T15:46:52.729Z,24.30
2019-03-16T15:49:20.182Z,24.30
2019-03-16T15:51:47.225Z,24.30
2019-03-16T15:54:14.165Z,24.30
2019-03-16T15:56:40.795Z,24.40
2019-03-16T15:59:09.385Z,24.50
2019-03-16T16:01:36.242Z,24.50
2019-03-16T16:04:04.052Z,24.40
2019-03-16T16:06:31.676Z,24.20
2019-03-16T16:08:59.208Z,24.20
2019-03-16T16:11:26.785Z,24.10
2019-03-16T16:13:54.468Z,24.00
2019-03-16T16:16:21.774Z,24.00
2019-03-16T16:18:48.609Z,23.80
2019-03-16T16:21:15.676Z,23.80
2019-03-16T16:23:42.601Z,23.70
2019-03-16T16:26:10.071Z,23.80
2019-03-16T16:28:36.955Z,23.80
2019-03-16T16:31:15.596Z,23.80
2019-03-16T16:33:32.885Z,24.00
2019-03-16T16:35:59.802Z,23.90
2019-03-16T16:38:26.806Z,24.00
2019-03-16T16:40:53.357Z,24.00
2019-03-16T16:43:21.855Z,24.00
2019-03-16T16:45:50.920Z,24.10
2019-03-16T16:48:18.410Z,24.00
2019-03-16T16:50:45.330Z,23.90
2019-03-16T16:53:12.463Z,23.90
2019-03-16T16:55:39.203Z,24.00
2019-03-16T16:58:07.524Z,24.00
2019-03-16T17:00:35.204Z,24.00
2019-03-16T17:03:01.824Z,24.00
2019-03-16T17:05:28.384Z,24.10
2019-03-16T17:07:54.983Z,24.20
2019-03-16T17:10:21.460Z,24.20
2019-03-16T17:12:48.107Z,24.10
2019-03-16T17:15:16.305Z,23.90
2019-03-16T17:17:42.905Z,23.90
2019-03-16T17:20:11.212Z,23.90
2019-03-16T17:22:38.306Z,24.00
2019-03-16T17:25:07.684Z,23.90
2019-03-16T17:27:34.469Z,23.80
2019-03-16T17:30:01.245Z,23.70
2019-03-16T17:32:28.260Z,23.70
2019-03-16T17:34:56.290Z,23.50
2019-03-16T17:37:24.141Z,23.50
2019-03-16T17:39:50.707Z,23.40
2019-03-16T17:42:19.341Z,23.40
2019-03-16T17:44:45.916Z,23.30
2019-03-16T17:47:12.605Z,23.30
2019-03-16T17:49:39.170Z,23.30
2019-03-16T17:52:05.839Z,23.30
2019-03-16T17:54:32.692Z,23.30
2019-03-16T17:56:59.304Z,23.30
2019-03-16T17:59:25.940Z,23.30
2019-03-16T18:01:54.908Z,23.30
2019-03-16T18:04:21.300Z,23.40
2019-03-16T18:06:48.229Z,23.40
2019-03-16T18:09:16.048Z,23.30
2019-03-16T18:11:43.677Z,23.30
2019-03-16T18:14:10.797Z,23.40
2019-03-16T18:16:37.798Z,23.40
2019-03-16T18:19:04.477Z,23.40
2019-03-16T18:21:31.086Z,23.40
2019-03-16T18:23:58.593Z,23.40
2019-03-16T18:26:25.202Z,23.40
2019-03-16T18:28:53.459Z,23.40
2019-03-16T18:31:20.004Z,23.40
2019-03-16T18:36:37.947Z,23.30
2019-03-16T18:39:05.026Z,23.20
2019-03-16T18:41:32.087Z,23.20
2019-03-16T18:43:59.204Z,23.10
2019-03-16T18:46:26.171Z,23.10
2019-03-16T18:48:53.132Z,23.10
2019-03-16T18:51:20.077Z,23.10
2019-03-16T18:53:47.426Z,23.00
2019-03-16T18:56:15.702Z,23.00
2019-03-16T18:58:43.168Z,23.00
2019-03-16T19:01:09.977Z,23.00
2019-03-16T19:03:36.518Z,23.10
2019-03-16T19:06:03.089Z,23.10
2019-03-16T19:08:29.694Z,23.20
2019-03-16T19:10:56.307Z,23.20
2019-03-16T19:13:22.977Z,23.10
2019-03-16T19:15:50.696Z,23.10
2019-03-16T19:18:17.446Z,23.10
2019-03-16T19:20:44.111Z,23.10
2019-03-16T19:23:10.817Z,23.10
2019-03-16T19:25:38.578Z,23.20
2019-03-16T19:28:05.457Z,23.20
2019-03-16T19:30:32.362Z,23.10
2019-03-16T19:32:59.210Z,23.10
2019-03-16T19:35:26.042Z,23.10
2019-03-16T19:37:52.784Z,23.00
2019-03-16T19:40:20.902Z,23.00
2019-03-16T19:42:47.915Z,23.00
2019-03-16T19:45:14.724Z,23.00
2019-03-16T19:47:41.437Z,23.00
2019-03-16T19:50:10.614Z,23.00
2019-03-16T19:52:39.575Z,22.90
2019-03-16T19:55:08.708Z,22.90
2019-03-16T19:57:36.566Z,22.80
2019-03-16T20:00:07.010Z,22.80
2019-03-16T20:02:45.731Z,22.70
2019-03-16T20:05:03.960Z,22.70
2019-03-16T20:07:30.777Z,22.70
2019-03-16T20:09:57.545Z,22.70
2019-03-16T20:12:24.439Z,22.70
2019-03-16T20:14:51.291Z,22.70
2019-03-16T20:17:18.142Z,22.60
2019-03-16T20:19:45.160Z,22.60
2019-03-16T20:22:12.375Z,22.60
2019-03-16T20:24:40.975Z,22.60
2019-03-16T20:27:07.475Z,22.60
2019-03-16T20:29:34.145Z,22.60
2019-03-16T20:32:01.725Z,22.50
2019-03-16T20:34:28.443Z,22.50
2019-03-16T20:36:55.408Z,22.50
2019-03-16T20:39:22.652Z,22.50
2019-03-16T20:41:49.267Z,22.50
2019-03-16T20:44:15.834Z,22.50
2019-03-16T20:46:42.580Z,22.40
2019-03-16T20:49:09.415Z,22.40
2019-03-16T20:51:36.837Z,22.40
2019-03-16T20:54:04.085Z,22.30
2019-03-16T20:56:30.936Z,22.30
2019-03-16T20:58:57.903Z,22.30
2019-03-16T21:01:24.983Z,22.30
2019-03-16T21:03:52.066Z,22.30
2019-03-16T21:06:19.214Z,22.30
2019-03-16T21:08:46.255Z,22.40
2019-03-16T21:11:13.944Z,22.30
2019-03-16T21:13:42.495Z,22.40
2019-03-16T21:16:09.565Z,22.50
2019-03-16T21:18:37.821Z,22.50
2019-03-16T21:21:06.043Z,22.60
2019-03-16T21:23:33.672Z,22.70
2019-03-16T21:26:01.644Z,22.70
2019-03-16T21:28:29.842Z,22.70
2019-03-16T21:30:59.948Z,22.80
2019-03-16T21:33:30.034Z,22.80
2019-03-16T21:35:58.570Z,22.80
2019-03-16T21:38:27.973Z,22.80
2019-03-16T21:41:11.259Z,22.90
2019-03-16T21:43:38.935Z,22.90
2019-03-16T21:46:06.652Z,23.00
2019-03-16T21:48:35.088Z,23.00
2019-03-16T21:51:03.165Z,23.00
2019-03-16T21:53:31.548Z,23.10
2019-03-16T21:55:59.755Z,23.10
2019-03-16T21:58:27.728Z,23.20
2019-03-16T22:00:55.105Z,23.20
2019-03-16T22:03:22.321Z,23.20
2019-03-16T22:05:49.977Z,23.20
2019-03-16T22:08:17.857Z,23.20
2019-03-16T22:10:49.579Z,23.10
2019-03-16T22:13:16.967Z,23.10
2019-03-16T22:15:44.816Z,23.00
2019-03-16T22:18:12.216Z,23.00
2019-03-16T22:20:40.329Z,23.00
2019-03-16T22:23:08.034Z,23.00
2019-03-16T22:25:36.126Z,23.00
2019-03-16T22:28:04.178Z,23.10
2019-03-16T22:30:31.283Z,23.10
2019-03-16T22:32:59.904Z,23.10
2019-03-16T22:35:29.515Z,23.10
2019-03-16T22:37:56.925Z,23.10
2019-03-16T22:40:24.298Z,23.10
2019-03-16T22:42:51.739Z,23.10
2019-03-16T22:45:19.096Z,23.10
2019-03-16T22:47:48.173Z,23.10
2019-03-16T22:50:17.595Z,23.10
2019-03-16T22:52:44.624Z,23.10
2019-03-16T22:55:12.204Z,23.00
2019-03-16T22:57:38.829Z,23.00
2019-03-16T23:00:14.580Z,22.90
2019-03-16T23:02:43.970Z,22.80
2019-03-16T23:05:11.245Z,22.80
2019-03-16T23:07:38.998Z,22.80
2019-03-16T23:10:09.848Z,22.70
2019-03-16T23:12:37.929Z,22.70
2019-03-16T23:15:09.983Z,22.70
2019-03-16T23:17:37.811Z,22.60
2019-03-16T23:20:06.257Z,22.60
2019-03-16T23:22:33.451Z,22.60
2019-03-16T23:25:00.711Z,22.60
2019-03-16T23:27:29.054Z,22.50
2019-03-16T23:29:56.145Z,22.50
2019-03-16T23:32:23.362Z,22.50
2019-03-16T23:34:51.939Z,22.50
2019-03-16T23:37:19.186Z,22.50
2019-03-16T23:39:46.545Z,22.50
2019-03-16T23:42:14.536Z,22.50
2019-03-16T23:44:43.337Z,22.50
2019-03-16T23:47:10.546Z,22.50
2019-03-16T23:49:37.818Z,22.50
2019-03-16T23:52:04.969Z,22.60
2019-03-16T23:54:32.255Z,22.60
2019-03-16T23:56:59.448Z,22.60
2019-03-16T23:59:26.528Z,22.50
